Time;durP1;ratioP1;P1;durP2;ratioP2;P2;SDS_P1;SDS_P2;PMS_P1;PMS_P2;Temp;Humidity;BMP_temperature;BMP_pressure;BME280_temperature;BME280_humidity;BME280_pressure;Samples;Min_cycle;Max_cycle;Signal;HPM_P1;HPM_P2
2021/01/09 00:00:12;;;;;;;8.73;4.35;;;18.50;99.90;;;;;;5070565;28;20040;-69
2021/01/09 00:02:42;;;;;;;7.00;4.22;;;18.50;99.90;;;;;;5070877;28;20056;-70
2021/01/09 00:05:08;;;;;;;6.03;3.85;;;18.40;99.90;;;;;;5071093;28;20420;-70
2021/01/09 00:07:36;;;;;;;6.35;4.30;;;18.50;99.90;;;;;;5070638;28;20024;-70
2021/01/09 00:10:03;;;;;;;6.50;4.50;;;18.40;99.90;;;;;;5071188;28;20052;-69
2021/01/09 00:12:29;;;;;;;6.90;4.00;;;18.40;99.90;;;;;;5070750;28;20079;-69
2021/01/09 00:14:55;;;;;;;7.13;4.43;;;18.30;99.90;;;;;;5070814;28;20020;-70
2021/01/09 00:17:20;;;;;;;5.95;4.00;;;18.40;99.90;;;;;;5070883;28;20025;-69
2021/01/09 00:19:46;;;;;;;6.30;4.30;;;18.40;99.90;;;;;;5070746;28;20123;-69
2021/01/09 00:22:11;;;;;;;6.30;4.13;;;18.40;99.90;;;;;;5070914;28;20026;-69
2021/01/09 00:24:37;;;;;;;5.43;4.32;;;18.40;99.90;;;;;;5070148;28;20070;-69
2021/01/09 00:27:13;;;;;;;5.30;3.95;;;18.40;99.90;;;;;;5069735;28;20028;-70
2021/01/09 00:29:41;;;;;;;5.95;3.85;;;18.40;99.90;;;;;;5070822;28;20035;-70
2021/01/09 00:32:07;;;;;;;5.40;4.18;;;18.30;99.90;;;;;;5070795;28;20035;-70
2021/01/09 00:34:32;;;;;;;4.65;3.88;;;18.30;99.90;;;;;;5070953;28;20381;-70
2021/01/09 00:36:58;;;;;;;6.05;4.40;;;18.30;99.90;;;;;;5069972;28;20063;-70
2021/01/09 00:39:24;;;;;;;5.95;4.20;;;18.30;99.90;;;;;;5070281;28;20075;-69
2021/01/09 00:41:51;;;;;;;6.82;4.13;;;18.20;99.90;;;;;;5070938;28;20102;-70
2021/01/09 00:44:16;;;;;;;5.47;4.28;;;18.20;99.90;;;;;;5070804;28;20433;-69
2021/01/09 00:46:42;;;;;;;6.10;4.38;;;18.20;99.90;;;;;;5073632;28;20032;-69
2021/01/09 00:49:08;;;;;;;5.53;4.45;;;18.20;99.90;;;;;;5073674;28;20136;-70
2021/01/09 00:51:34;;;;;;;6.25;4.55;;;18.20;99.90;;;;;;5074850;28;20025;-70
2021/01/09 00:53:59;;;;;;;5.78;4.30;;;18.20;99.90;;;;;;5073957;28;20028;-69
2021/01/09 00:56:25;;;;;;;5.40;4.07;;;18.10;99.90;;;;;;5073878;28;20031;-70
2021/01/09 00:58:50;;;;;;;5.82;4.05;;;18.10;99.90;;;;;;5073773;28;20514;-69
2021/01/09 01:01:16;;;;;;;6.80;4.43;;;18.10;99.90;;;;;;5073822;28;20037;-70
2021/01/09 01:03:42;;;;;;;6.43;4.55;;;18.00;99.90;;;;;;5074206;28;20044;-68
2021/01/09 01:06:09;;;;;;;6.88;4.50;;;18.00;99.90;;;;;;5073671;28;20029;-69
2021/01/09 01:08:35;;;;;;;5.63;4.00;;;18.00;99.90;;;;;;5074018;28;20051;-69
2021/01/09 01:11:01;;;;;;;5.85;4.70;;;17.90;99.90;;;;;;5074148;28;20055;-70
2021/01/09 01:13:27;;;;;;;5.30;4.32;;;17.90;99.90;;;;;;5073915;28;20056;-68
2021/01/09 01:15:52;;;;;;;6.05;4.50;;;17.90;99.90;;;;;;5073597;28;20028;-69
2021/01/09 01:18:24;;;;;;;6.47;4.32;;;17.90;99.90;;;;;;5073527;28;20028;-69
2021/01/09 01:20:50;;;;;;;6.63;4.55;;;17.90;99.90;;;;;;5072366;28;20033;-70
2021/01/09 01:23:17;;;;;;;6.97;4.07;;;17.90;99.90;;;;;;5073247;28;20372;-70
2021/01/09 01:25:42;;;;;;;5.82;4.40;;;17.90;99.90;;;;;;5073468;28;20480;-70
2021/01/09 01:28:08;;;;;;;7.18;4.40;;;17.90;99.90;;;;;;5073247;28;20090;-70
2021/01/09 01:30:34;;;;;;;7.15;4.82;;;17.90;99.90;;;;;;5074099;28;20043;-70
2021/01/09 01:33:00;;;;;;;5.68;4.45;;;17.90;99.90;;;;;;5073711;28;20028;-70
2021/01/09 01:35:25;;;;;;;6.65;4.47;;;17.90;99.90;;;;;;5073233;28;20115;-70
2021/01/09 01:37:52;;;;;;;7.03;4.55;;;17.80;99.90;;;;;;5073166;28;20139;-69
2021/01/09 01:40:18;;;;;;;7.00;4.47;;;17.80;99.90;;;;;;5073394;28;20036;-70
2021/01/09 01:42:43;;;;;;;6.72;4.60;;;17.80;99.90;;;;;;5073577;28;20487;-70
2021/01/09 01:45:09;;;;;;;5.63;4.32;;;17.80;99.90;;;;;;5072816;28;20029;-69
2021/01/09 01:47:35;;;;;;;5.55;4.45;;;17.70;99.90;;;;;;5071960;28;20032;-69
2021/01/09 01:50:02;;;;;;;6.28;4.60;;;17.80;99.90;;;;;;5073021;28;20544;-70
2021/01/09 01:52:27;;;;;;;5.75;4.60;;;17.70;99.90;;;;;;5072879;28;20484;-69
2021/01/09 01:54:53;;;;;;;5.47;4.18;;;17.70;99.90;;;;;;5073395;28;20043;-69
2021/01/09 01:57:19;;;;;;;6.72;4.75;;;17.80;99.90;;;;;;5072582;28;20024;-69
2021/01/09 01:59:45;;;;;;;5.82;5.10;;;17.70;99.90;;;;;;5072803;28;20102;-69
2021/01/09 02:02:13;;;;;;;6.53;4.38;;;17.70;99.90;;;;;;5072655;28;20481;-70
2021/01/09 02:04:39;;;;;;;6.05;4.80;;;17.70;99.90;;;;;;5072819;28;20024;-70
2021/01/09 02:07:16;;;;;;;5.78;4.65;;;17.70;99.90;;;;;;5072776;28;20036;-70
2021/01/09 02:09:44;;;;;;;5.47;4.82;;;17.70;99.90;;;;;;5072747;28;20025;-69
2021/01/09 02:12:19;;;;;;;5.20;4.47;;;17.70;99.90;;;;;;5072741;28;20031;-69
2021/01/09 02:14:51;;;;;;;6.35;4.68;;;17.70;99.90;;;;;;5072385;28;20021;-70
2021/01/09 02:17:19;;;;;;;6.35;4.88;;;17.70;99.90;;;;;;5072625;28;20040;-69
2021/01/09 02:19:45;;;;;;;6.40;5.28;;;17.70;99.90;;;;;;5072549;28;20052;-69
2021/01/09 02:22:13;;;;;;;5.63;4.32;;;17.60;99.90;;;;;;5071062;28;20127;-70
2021/01/09 02:24:39;;;;;;;7.65;5.15;;;17.60;99.90;;;;;;5072450;28;20028;-69
2021/01/09 02:27:06;;;;;;;6.28;4.88;;;17.60;99.90;;;;;;5072700;28;20025;-70
2021/01/09 02:29:39;;;;;;;6.38;4.75;;;17.60;99.90;;;;;;5072360;28;20507;-70
2021/01/09 02:32:09;;;;;;;5.78;4.78;;;17.60;99.90;;;;;;5072972;28;20070;-70
2021/01/09 02:34:42;;;;;;;6.72;5.45;;;17.60;99.90;;;;;;5072614;28;20402;-69
2021/01/09 02:37:09;;;;;;;6.15;4.35;;;17.60;99.90;;;;;;5055993;28;20415;-69
2021/01/09 02:39:36;;;;;;;8.65;5.03;;;17.60;99.90;;;;;;5072602;28;20048;-69
2021/01/09 02:42:03;;;;;;;6.57;5.40;;;17.60;99.90;;;;;;5072288;28;20095;-69
2021/01/09 02:44:29;;;;;;;6.10;5.38;;;17.50;99.90;;;;;;5071833;28;20111;-70
2021/01/09 02:46:55;;;;;;;6.25;4.47;;;17.60;99.90;;;;;;5072232;28;20095;-70
2021/01/09 02:49:20;;;;;;;6.35;4.85;;;17.60;99.90;;;;;;5071605;28;20037;-70
2021/01/09 02:51:46;;;;;;;5.45;4.90;;;17.60;99.90;;;;;;5071988;28;20028;-69
2021/01/09 02:54:11;;;;;;;7.10;4.78;;;17.60;99.90;;;;;;5071468;28;20033;-70
2021/01/09 02:56:37;;;;;;;5.80;5.00;;;17.50;99.90;;;;;;5072236;28;20035;-69
2021/01/09 02:59:03;;;;;;;5.40;4.80;;;17.50;99.90;;;;;;5072053;28;20032;-70
2021/01/09 03:01:29;;;;;;;5.30;4.75;;;17.50;99.90;;;;;;5071110;28;20017;-70
2021/01/09 03:03:56;;;;;;;4.85;4.20;;;17.50;99.90;;;;;;5072155;28;20035;-70
2021/01/09 03:06:22;;;;;;;5.75;4.72;;;17.50;99.90;;;;;;5071439;28;20020;-70
2021/01/09 03:08:47;;;;;;;5.80;4.75;;;17.50;99.90;;;;;;5070584;28;20085;-70
2021/01/09 03:11:15;;;;;;;6.72;5.28;;;17.50;99.90;;;;;;5071456;28;20472;-70
2021/01/09 03:13:41;;;;;;;5.88;4.90;;;17.40;99.90;;;;;;5071742;28;20025;-70
2021/01/09 03:16:07;;;;;;;5.85;4.78;;;17.50;99.90;;;;;;5071295;28;20082;-70
2021/01/09 03:18:32;;;;;;;6.63;4.90;;;17.40;99.90;;;;;;5070587;28;20032;-70
2021/01/09 03:20:58;;;;;;;7.15;5.28;;;17.40;99.90;;;;;;5071125;28;20476;-70
2021/01/09 03:23:23;;;;;;;6.63;5.55;;;17.40;99.90;;;;;;5071310;28;20033;-70
2021/01/09 03:25:49;;;;;;;6.38;5.25;;;17.40;99.90;;;;;;5071260;28;20054;-70
2021/01/09 03:28:15;;;;;;;6.25;5.25;;;17.40;99.90;;;;;;5070685;28;20103;-69
2021/01/09 03:30:40;;;;;;;5.88;5.28;;;17.30;99.90;;;;;;5071103;28;20021;-70
2021/01/09 03:33:06;;;;;;;7.50;5.28;;;17.40;99.90;;;;;;5071799;28;20033;-69
2021/01/09 03:35:32;;;;;;;5.65;5.05;;;17.40;99.90;;;;;;5071551;28;20024;-69
2021/01/09 03:37:57;;;;;;;5.75;4.78;;;17.30;99.90;;;;;;5070727;28;20028;-70
2021/01/09 03:40:23;;;;;;;6.07;5.13;;;17.30;99.90;;;;;;5071250;28;20027;-71
2021/01/09 03:42:48;;;;;;;5.78;5.07;;;17.30;99.90;;;;;;5071312;28;20025;-70
2021/01/09 03:45:14;;;;;;;8.02;5.05;;;17.30;99.90;;;;;;5070921;28;20035;-71
2021/01/09 03:47:40;;;;;;;7.18;5.07;;;17.20;99.90;;;;;;5071085;28;20056;-70
2021/01/09 03:50:06;;;;;;;6.72;5.05;;;17.30;99.90;;;;;;5071101;28;20028;-69
2021/01/09 03:52:32;;;;;;;5.57;4.80;;;17.30;99.90;;;;;;5071448;28;20031;-70
2021/01/09 03:54:57;;;;;;;5.65;4.45;;;17.20;99.90;;;;;;5071213;28;20103;-69
2021/01/09 03:57:23;;;;;;;9.98;4.70;;;17.20;99.90;;;;;;5070710;28;20023;-69
2021/01/09 03:59:49;;;;;;;6.55;4.50;;;17.20;99.90;;;;;;5070723;28;20082;-69
2021/01/09 04:02:15;;;;;;;5.72;4.78;;;17.20;99.90;;;;;;5070876;28;20058;-69
2021/01/09 04:04:41;;;;;;;7.05;5.13;;;17.20;99.90;;;;;;5071234;28;20544;-69
2021/01/09 04:07:06;;;;;;;5.85;4.45;;;17.20;99.90;;;;;;5071186;28;20103;-69
2021/01/09 04:09:32;;;;;;;6.72;4.78;;;17.20;99.90;;;;;;5070865;28;20020;-69
2021/01/09 04:11:58;;;;;;;7.25;4.75;;;17.10;99.90;;;;;;5070763;28;20027;-69
2021/01/09 04:14:23;;;;;;;6.53;4.80;;;17.10;99.90;;;;;;5070503;28;20028;-69
2021/01/09 04:16:49;;;;;;;5.53;4.88;;;17.10;99.90;;;;;;5070930;28;20025;-69
2021/01/09 04:19:15;;;;;;;5.85;5.25;;;17.10;99.90;;;;;;5070626;28;20033;-69
2021/01/09 04:21:45;;;;;;;5.70;4.70;;;17.10;99.90;;;;;;5073274;28;20078;-69
2021/01/09 04:24:12;;;;;;;5.40;4.28;;;17.10;99.90;;;;;;5074867;28;20035;-69
2021/01/09 04:26:38;;;;;;;7.43;4.95;;;17.00;99.90;;;;;;5073330;28;20029;-69
2021/01/09 04:29:03;;;;;;;6.07;4.63;;;17.00;99.90;;;;;;5075229;28;20400;-68
2021/01/09 04:31:29;;;;;;;7.32;5.10;;;17.00;99.90;;;;;;5074785;28;20064;-68
2021/01/09 04:33:55;;;;;;;6.15;4.88;;;17.00;99.90;;;;;;5074585;28;20132;-69
2021/01/09 04:36:20;;;;;;;5.68;4.70;;;17.00;99.90;;;;;;5074769;28;20021;-70
2021/01/09 04:38:46;;;;;;;5.15;4.35;;;17.00;99.90;;;;;;5073841;28;20036;-70
2021/01/09 04:41:12;;;;;;;7.07;4.88;;;17.00;99.90;;;;;;5074409;28;20064;-69
2021/01/09 04:43:37;;;;;;;6.20;4.28;;;17.00;99.90;;;;;;5074337;28;20381;-70
2021/01/09 04:46:03;;;;;;;6.18;4.45;;;16.90;99.90;;;;;;5074417;28;20029;-70
2021/01/09 04:48:30;;;;;;;5.43;4.43;;;16.90;99.90;;;;;;5054572;28;20029;-70
2021/01/09 04:50:56;;;;;;;5.18;4.30;;;16.90;99.90;;;;;;5054287;28;20468;-70
2021/01/09 04:53:23;;;;;;;6.47;4.80;;;16.90;99.90;;;;;;5054391;28;20025;-70
2021/01/09 04:55:51;;;;;;;4.43;4.00;;;16.80;99.90;;;;;;5054121;28;20488;-69
2021/01/09 04:58:17;;;;;;;5.57;4.70;;;16.80;99.90;;;;;;5062680;28;20032;-69
2021/01/09 05:00:42;;;;;;;5.45;4.57;;;16.80;99.90;;;;;;5073677;28;20028;-70
2021/01/09 05:03:09;;;;;;;5.57;4.35;;;16.80;99.90;;;;;;5073996;28;20024;-69
2021/01/09 05:05:34;;;;;;;5.10;4.32;;;16.80;99.90;;;;;;5074095;28;20044;-70
2021/01/09 05:08:00;;;;;;;5.30;4.60;;;16.80;99.90;;;;;;5073407;28;20028;-70
2021/01/09 05:10:26;;;;;;;5.18;4.30;;;16.80;99.90;;;;;;5073996;28;20033;-69
2021/01/09 05:12:51;;;;;;;5.60;4.50;;;16.80;99.90;;;;;;5073857;28;20064;-69
2021/01/09 05:15:17;;;;;;;5.13;4.15;;;16.70;99.90;;;;;;5074240;28;20036;-69
2021/01/09 05:17:42;;;;;;;5.30;4.50;;;16.70;99.90;;;;;;5073570;28;20043;-70
2021/01/09 05:20:09;;;;;;;4.68;4.20;;;16.70;99.90;;;;;;5073960;28;20060;-69
2021/01/09 05:22:36;;;;;;;5.40;4.65;;;16.70;99.90;;;;;;5073399;28;20021;-68
2021/01/09 05:25:03;;;;;;;4.68;4.13;;;16.70;99.90;;;;;;5072613;28;20451;-68
2021/01/09 05:27:29;;;;;;;5.03;4.20;;;16.70;99.90;;;;;;5073298;28;20024;-68
2021/01/09 05:29:55;;;;;;;6.70;4.40;;;16.60;99.90;;;;;;5073193;28;20500;-69
2021/01/09 05:32:22;;;;;;;5.63;4.15;;;16.60;99.90;;;;;;5072686;28;20036;-68
2021/01/09 05:34:53;;;;;;;7.47;4.70;;;16.70;99.90;;;;;;5073031;28;20025;-70
2021/01/09 05:37:28;;;;;;;7.30;4.20;;;16.70;99.90;;;;;;5073693;28;20127;-69
2021/01/09 05:39:56;;;;;;;5.93;4.70;;;16.70;99.90;;;;;;5073365;28;20043;-69
2021/01/09 05:42:27;;;;;;;4.97;4.38;;;16.60;99.90;;;;;;5073195;28;20539;-69
2021/01/09 05:44:55;;;;;;;4.85;4.03;;;16.50;99.90;;;;;;5073092;28;20087;-69
2021/01/09 05:47:23;;;;;;;4.70;4.10;;;16.60;99.90;;;;;;5073433;28;20021;-69
2021/01/09 05:49:51;;;;;;;4.82;3.97;;;16.50;99.90;;;;;;5072010;28;20035;-70
2021/01/09 05:52:17;;;;;;;4.40;4.00;;;16.50;99.90;;;;;;5073561;28;20028;-69
2021/01/09 05:54:43;;;;;;;5.95;4.68;;;16.50;99.90;;;;;;5072928;28;20490;-69
2021/01/09 05:57:15;;;;;;;4.97;3.72;;;16.40;99.90;;;;;;5073606;28;20100;-69
2021/01/09 05:59:44;;;;;;;4.50;4.10;;;16.40;99.90;;;;;;5072811;28;20032;-69
2021/01/09 06:02:10;;;;;;;5.85;4.00;;;16.40;99.90;;;;;;5071760;28;20031;-69
2021/01/09 06:04:42;;;;;;;5.32;4.00;;;16.40;99.90;;;;;;5073000;28;20115;-69
2021/01/09 06:07:16;;;;;;;5.63;4.18;;;16.40;99.90;;;;;;5073420;28;20100;-69
2021/01/09 06:10:03;;;;;;;4.57;3.88;;;16.40;99.90;;;;;;5072867;28;20021;-69
2021/01/09 06:12:35;;;;;;;4.43;3.90;;;16.40;99.90;;;;;;5072175;28;20468;-69
2021/01/09 06:15:03;;;;;;;4.05;3.65;;;16.40;99.90;;;;;;5072702;28;20503;-69
2021/01/09 06:17:33;;;;;;;5.85;4.35;;;16.40;99.90;;;;;;5072414;28;20063;-69
2021/01/09 06:19:59;;;;;;;4.55;4.00;;;16.40;99.90;;;;;;5072170;28;20114;-69
2021/01/09 06:22:28;;;;;;;4.20;3.58;;;16.40;99.90;;;;;;5072753;28;20025;-68
2021/01/09 06:24:54;;;;;;;4.32;3.80;;;16.40;99.90;;;;;;5072530;28;20387;-68
2021/01/09 06:27:30;;;;;;;4.70;4.03;;;16.40;99.90;;;;;;5072247;28;20024;-68
2021/01/09 06:30:03;;;;;;;5.40;3.50;;;16.40;99.90;;;;;;5058349;28;20109;-68
2021/01/09 06:32:33;;;;;;;4.55;3.88;;;16.40;99.90;;;;;;5071725;28;20051;-68
2021/01/09 06:35:03;;;;;;;5.85;3.78;;;16.30;99.90;;;;;;5072587;28;20039;-69
2021/01/09 06:37:29;;;;;;;4.90;3.55;;;16.30;99.90;;;;;;5072424;28;20418;-69
2021/01/09 06:39:55;;;;;;;4.05;3.50;;;16.30;99.90;;;;;;5072032;28;20039;-69
2021/01/09 06:42:21;;;;;;;4.35;3.63;;;16.30;99.90;;;;;;5071380;28;20028;-68
2021/01/09 06:44:53;;;;;;;4.25;3.70;;;16.30;99.90;;;;;;5071709;28;20119;-69
2021/01/09 06:47:27;;;;;;;4.53;3.83;;;16.30;99.90;;;;;;5052308;28;20039;-69
2021/01/09 06:49:53;;;;;;;4.05;3.65;;;16.30;99.90;;;;;;5069577;28;20033;-68
2021/01/09 06:52:19;;;;;;;4.32;3.58;;;16.30;99.90;;;;;;5072231;28;20036;-69
2021/01/09 06:54:46;;;;;;;6.03;3.45;;;16.30;99.90;;;;;;5071459;28;20388;-68
2021/01/09 06:57:19;;;;;;;3.83;3.28;;;16.20;99.90;;;;;;5071952;28;20388;-69
2021/01/09 06:59:49;;;;;;;4.60;3.60;;;16.20;99.90;;;;;;5071556;28;20036;-68
2021/01/09 07:02:27;;;;;;;4.43;3.80;;;16.20;99.90;;;;;;5071173;28;20116;-69
2021/01/09 07:04:59;;;;;;;4.20;3.33;;;16.20;99.90;;;;;;5071838;28;20101;-69
2021/01/09 07:07:54;;;;;;;5.45;3.42;;;16.20;99.90;;;;;;5071746;28;20021;-69
2021/01/09 07:10:23;;;;;;;;;;;16.20;99.90;;;;;;5071720;28;20063;-68
2021/01/09 07:12:54;;;;;;;4.00;3.25;;;16.20;99.90;;;;;;5071624;28;19904;-68
2021/01/09 07:15:21;;;;;;;4.25;3.30;;;16.20;99.90;;;;;;5071368;28;20506;-68
2021/01/09 07:17:50;;;;;;;4.10;3.50;;;16.20;99.90;;;;;;5071447;28;20111;-69
2021/01/09 07:20:19;;;;;;;4.72;3.88;;;16.20;99.90;;;;;;5071336;28;20060;-70
2021/01/09 07:22:53;;;;;;;4.30;3.80;;;16.20;99.90;;;;;;5070170;28;20104;-68
2021/01/09 07:25:45;;;;;;;4.75;3.97;;;16.20;99.90;;;;;;5071349;28;20039;-68
2021/01/09 07:28:17;;;;;;;5.30;3.83;;;16.20;99.90;;;;;;5068861;28;20029;-69
2021/01/09 07:30:44;;;;;;;5.10;3.88;;;16.10;99.90;;;;;;5070510;28;20051;-69
2021/01/09 07:33:12;;;;;;;4.50;3.67;;;16.10;99.90;;;;;;5071025;28;20107;-69
2021/01/09 07:35:40;;;;;;;4.18;3.50;;;16.10;99.90;;;;;;5071027;28;20058;-69
2021/01/09 07:38:07;;;;;;;4.80;3.90;;;16.10;99.90;;;;;;5071429;28;20031;-69
2021/01/09 07:40:42;;;;;;;5.95;3.97;;;16.10;99.90;;;;;;5070959;28;20086;-69
2021/01/09 07:43:44;;;;;;;5.68;3.85;;;16.10;99.90;;;;;;5070963;28;20499;-68
2021/01/09 07:46:36;;;;;;;4.63;4.00;;;16.10;99.90;;;;;;5071436;28;20036;-69
2021/01/09 07:49:03;;;;;;;4.78;3.72;;;16.10;99.90;;;;;;5068857;28;20036;-69
2021/01/09 07:51:58;;;;;;;5.10;3.80;;;16.10;99.90;;;;;;5071016;28;20029;-69
2021/01/09 07:54:38;;;;;;;4.88;3.53;;;16.00;99.90;;;;;;5070952;28;20415;-68
2021/01/09 07:57:24;;;;;;;6.50;3.88;;;16.00;99.90;;;;;;5070598;28;20487;-68
2021/01/09 07:59:56;;;;;;;4.57;3.88;;;16.00;99.90;;;;;;5070582;28;20407;-71
2021/01/09 08:02:26;;;;;;;4.10;3.40;;;16.00;99.90;;;;;;5069961;28;20048;-69
2021/01/09 08:05:08;;;;;;;4.53;3.70;;;16.00;99.90;;;;;;5070292;28;20040;-69
2021/01/09 08:07:39;;;;;;;5.20;3.30;;;16.00;99.90;;;;;;5070989;28;20065;-70
2021/01/09 08:10:21;;;;;;;4.20;3.72;;;16.00;99.90;;;;;;5070180;28;20343;-70
2021/01/09 08:12:52;;;;;;;3.90;3.35;;;16.00;99.90;;;;;;5069058;28;20082;-71
2021/01/09 08:15:25;;;;;;;7.00;3.83;;;16.00;99.90;;;;;;5071025;28;20540;-70
2021/01/09 08:17:51;;;;;;;3.85;3.33;;;15.90;99.90;;;;;;5070795;28;20400;-69
2021/01/09 08:20:18;;;;;;;4.65;3.60;;;15.90;99.90;;;;;;5070805;28;20066;-68
2021/01/09 08:22:56;;;;;;;3.83;3.42;;;15.90;99.90;;;;;;5071071;28;20032;-68
2021/01/09 08:25:25;;;;;;;3.53;3.13;;;15.90;99.90;;;;;;5070572;28;20029;-70
2021/01/09 08:27:56;;;;;;;4.10;3.08;;;15.90;99.90;;;;;;5070263;28;20067;-67
2021/01/09 08:30:25;;;;;;;4.95;3.35;;;15.90;99.90;;;;;;5070868;28;20028;-67
2021/01/09 08:33:04;;;;;;;3.85;3.35;;;15.90;99.90;;;;;;5069962;28;20021;-67
2021/01/09 08:35:30;;;;;;;3.30;3.00;;;15.80;99.90;;;;;;5065435;28;20020;-69
2021/01/09 08:37:56;;;;;;;3.67;3.33;;;15.80;99.90;;;;;;5070381;28;20024;-70
2021/01/09 08:40:24;;;;;;;5.15;3.00;;;15.80;99.90;;;;;;5070695;28;20485;-68
2021/01/09 08:42:59;;;;;;;3.78;3.00;;;15.80;99.90;;;;;;5070230;28;20023;-68
2021/01/09 08:45:42;;;;;;;3.97;3.00;;;15.80;99.90;;;;;;5070474;28;20032;-70
2021/01/09 08:48:11;;;;;;;4.43;3.50;;;15.80;99.90;;;;;;5070986;28;20027;-69
2021/01/09 08:50:51;;;;;;;3.80;3.30;;;15.80;99.90;;;;;;5069928;28;20024;-69
2021/01/09 08:53:17;;;;;;;3.30;2.90;;;15.80;99.90;;;;;;5070736;28;20028;-69
2021/01/09 08:55:43;;;;;;;3.25;2.85;;;15.80;99.90;;;;;;5070821;28;20049;-69
2021/01/09 08:58:11;;;;;;;3.50;3.00;;;15.80;99.90;;;;;;5070683;28;20109;-69
2021/01/09 09:00:37;;;;;;;3.42;2.97;;;15.80;99.90;;;;;;5069453;28;20082;-69
2021/01/09 09:03:06;;;;;;;3.70;3.22;;;15.80;99.90;;;;;;5069915;28;20350;-70
2021/01/09 09:05:31;;;;;;;3.25;2.83;;;15.80;99.90;;;;;;5068643;28;20420;-70
2021/01/09 09:08:01;;;;;;;3.15;2.85;;;15.70;99.90;;;;;;5072093;28;20016;-71
2021/01/09 09:10:30;;;;;;;4.18;2.63;;;15.80;99.90;;;;;;5087204;28;20020;-67
2021/01/09 09:13:24;;;;;;;2.88;2.40;;;15.70;99.90;;;;;;5075827;28;20032;-71
2021/01/09 09:15:51;;;;;;;3.00;2.47;;;15.80;99.90;;;;;;5073681;28;20028;-68
2021/01/09 09:18:18;;;;;;;3.40;2.90;;;15.80;99.90;;;;;;5074323;28;20075;-67
2021/01/09 09:20:48;;;;;;;4.10;2.83;;;15.80;99.90;;;;;;5074112;28;20063;-70
2021/01/09 09:23:24;;;;;;;4.88;2.88;;;15.80;99.90;;;;;;5074342;28;20031;-72
2021/01/09 09:26:04;;;;;;;8.73;4.00;;;15.80;99.90;;;;;;5073210;28;20435;-73
2021/01/09 09:28:30;;;;;;;6.53;3.90;;;15.80;99.90;;;;;;5073711;28;20021;-71
2021/01/09 09:30:55;;;;;;;3.88;3.38;;;15.90;99.90;;;;;;5073245;28;20055;-74
2021/01/09 09:33:21;;;;;;;3.92;3.20;;;15.90;99.90;;;;;;5073322;28;20028;-70
2021/01/09 09:35:47;;;;;;;3.03;2.70;;;15.90;99.90;;;;;;5072762;28;20024;-67
2021/01/09 09:38:12;;;;;;;9.35;2.97;;;15.90;99.90;;;;;;5073749;28;20059;-68
2021/01/09 09:40:39;;;;;;;3.78;2.55;;;16.00;99.90;;;;;;5073443;28;20024;-69
2021/01/09 09:43:13;;;;;;;4.95;2.60;;;15.60;99.90;;;;;;5073642;28;20049;-69
2021/01/09 09:45:39;;;;;;;;;;;15.40;99.90;;;;;;5072665;28;20099;-68
2021/01/09 09:48:05;;;;;;;3.38;2.20;;;15.30;99.90;;;;;;5072121;28;19999;-70
2021/01/09 09:50:34;;;;;;;4.15;2.30;;;15.30;99.90;;;;;;5073540;28;20484;-68
2021/01/09 09:53:01;;;;;;;3.30;2.17;;;15.30;99.90;;;;;;5073397;28;20043;-69
2021/01/09 09:55:27;;;;;;;10.73;9.10;;;15.40;99.90;;;;;;5067827;28;20388;-68
2021/01/09 09:58:10;;;;;;;11.32;9.30;;;14.70;99.90;;;;;;5057029;28;20029;-69
2021/01/09 10:00:41;;;;;;;13.88;10.45;;;13.80;99.90;;;;;;5072362;28;20032;-70
2021/01/09 10:03:07;;;;;;;13.52;10.40;;;13.30;99.90;;;;;;5072275;28;20027;-68
2021/01/09 10:05:33;;;;;;;17.92;11.57;;;13.10;99.90;;;;;;5078487;28;20028;-69
2021/01/09 10:08:12;;;;;;;14.57;10.32;;;12.90;99.90;;;;;;5072833;28;20021;-67
2021/01/09 10:10:37;;;;;;;10.30;7.68;;;12.90;99.90;;;;;;5072472;28;20036;-68
2021/01/09 10:13:03;;;;;;;9.23;5.50;;;13.30;99.90;;;;;;5073108;28;20017;-68
2021/01/09 10:15:29;;;;;;;8.10;5.50;;;13.80;99.90;;;;;;5073107;28;20055;-68
2021/01/09 10:18:00;;;;;;;8.35;5.50;;;14.20;99.90;;;;;;5072818;28;20021;-69
2021/01/09 10:20:26;;;;;;;7.00;4.75;;;14.40;99.90;;;;;;5072340;28;20037;-68
2021/01/09 10:22:52;;;;;;;6.25;4.75;;;14.40;99.90;;;;;;5072431;28;20028;-69
2021/01/09 10:25:18;;;;;;;5.80;4.57;;;14.50;99.90;;;;;;5073097;28;20472;-69
2021/01/09 10:27:43;;;;;;;6.15;4.32;;;14.60;99.90;;;;;;5072467;28;20027;-69
2021/01/09 10:30:09;;;;;;;6.80;4.22;;;14.60;99.90;;;;;;5072296;28;20031;-69
2021/01/09 10:32:35;;;;;;;5.85;3.88;;;14.70;99.90;;;;;;5071972;28;20029;-69
2021/01/09 10:35:01;;;;;;;5.03;3.53;;;14.70;99.90;;;;;;5072141;28;20031;-68
2021/01/09 10:37:27;;;;;;;4.95;3.88;;;14.70;99.90;;;;;;5072415;28;20090;-68
2021/01/09 10:39:52;;;;;;;4.55;3.78;;;14.70;99.90;;;;;;5071801;28;20046;-68
2021/01/09 10:42:18;;;;;;;5.75;4.18;;;14.70;99.90;;;;;;5072232;28;20459;-69
2021/01/09 10:44:43;;;;;;;6.30;4.00;;;14.70;99.90;;;;;;5072111;28;20086;-68
2021/01/09 10:47:09;;;;;;;4.25;3.53;;;14.70;99.90;;;;;;5072423;28;20377;-68
2021/01/09 10:49:35;;;;;;;6.35;3.63;;;14.70;99.90;;;;;;5070738;28;20031;-68
2021/01/09 10:52:00;;;;;;;5.65;3.78;;;14.80;99.90;;;;;;5073740;28;20028;-68
2021/01/09 10:54:26;;;;;;;6.75;3.78;;;14.80;99.90;;;;;;5071462;28;20036;-67
2021/01/09 10:56:52;;;;;;;5.15;3.47;;;14.80;99.90;;;;;;5071432;28;20036;-67
2021/01/09 10:59:17;;;;;;;3.22;2.92;;;14.80;99.90;;;;;;5071911;28;20064;-66
2021/01/09 11:01:43;;;;;;;5.80;2.97;;;14.80;99.90;;;;;;5070873;28;20042;-66
2021/01/09 11:04:08;;;;;;;5.38;3.03;;;14.80;99.90;;;;;;5071576;28;20384;-65
2021/01/09 11:06:34;;;;;;;4.32;3.05;;;14.90;99.90;;;;;;5071570;28;20032;-67
2021/01/09 11:09:00;;;;;;;6.82;3.28;;;14.90;99.90;;;;;;5071681;28;20021;-67
2021/01/09 11:11:26;;;;;;;4.25;3.05;;;14.90;99.90;;;;;;5071807;28;20430;-67
2021/01/09 11:13:51;;;;;;;4.03;2.92;;;15.00;99.90;;;;;;5071790;28;20388;-68
2021/01/09 11:16:27;;;;;;;6.47;3.30;;;15.00;99.90;;;;;;5071608;28;20070;-66
2021/01/09 11:18:52;;;;;;;7.45;3.38;;;15.00;99.90;;;;;;5071353;28;20041;-69
2021/01/09 11:21:19;;;;;;;3.42;2.90;;;15.00;99.90;;;;;;5070963;28;20034;-71
2021/01/09 11:23:45;;;;;;;4.32;3.00;;;15.00;99.90;;;;;;5071321;28;20046;-71
2021/01/09 11:26:21;;;;;;;5.00;3.03;;;15.10;99.90;;;;;;5071631;28;20012;-66
2021/01/09 11:28:47;;;;;;;4.15;3.13;;;15.10;99.90;;;;;;5069483;28;20024;-66
2021/01/09 11:31:12;;;;;;;4.50;3.67;;;15.10;99.90;;;;;;5071393;28;20035;-68
2021/01/09 11:33:40;;;;;;;4.00;3.40;;;15.10;99.90;;;;;;5071124;28;20017;-68
2021/01/09 11:36:09;;;;;;;4.25;3.28;;;15.10;99.90;;;;;;5071463;28;20028;-67
2021/01/09 11:38:34;;;;;;;4.18;3.08;;;15.10;99.90;;;;;;5071045;28;20487;-68
2021/01/09 11:41:00;;;;;;;3.72;3.40;;;15.10;99.90;;;;;;5071275;28;20048;-67
2021/01/09 11:43:25;;;;;;;4.38;3.20;;;15.20;99.90;;;;;;5071398;28;20095;-69
2021/01/09 11:45:51;;;;;;;3.85;3.20;;;15.20;99.90;;;;;;5071241;28;20028;-66
2021/01/09 11:48:16;;;;;;;4.75;3.65;;;15.20;99.90;;;;;;5071139;28;20100;-70
2021/01/09 11:50:45;;;;;;;4.63;3.13;;;15.20;99.90;;;;;;5070497;28;20033;-69
2021/01/09 11:53:10;;;;;;;5.65;3.70;;;15.20;99.90;;;;;;5071243;28;20025;-71
2021/01/09 11:55:36;;;;;;;4.32;3.47;;;15.20;99.90;;;;;;5070999;28;20392;-69
2021/01/09 11:58:02;;;;;;;4.93;3.50;;;15.20;99.90;;;;;;5071018;28;20476;-68
2021/01/09 12:00:28;;;;;;;5.10;3.97;;;15.20;99.90;;;;;;5071203;28;20118;-68
2021/01/09 12:02:54;;;;;;;4.68;3.80;;;15.20;99.90;;;;;;5069766;28;20444;-67
2021/01/09 12:05:19;;;;;;;4.82;3.40;;;15.20;99.90;;;;;;5071082;28;20104;-67
2021/01/09 12:07:45;;;;;;;4.28;3.40;;;15.30;99.90;;;;;;5070743;28;20031;-67
2021/01/09 12:10:11;;;;;;;4.03;3.63;;;15.30;99.90;;;;;;5071090;28;20384;-66
2021/01/09 12:12:36;;;;;;;4.97;3.80;;;15.30;99.90;;;;;;5070786;28;20044;-65
2021/01/09 12:15:04;;;;;;;4.45;3.70;;;15.30;99.90;;;;;;5071149;28;20013;-66
2021/01/09 12:17:30;;;;;;;4.97;3.95;;;15.30;99.90;;;;;;5070344;28;20484;-64
2021/01/09 12:19:55;;;;;;;4.78;3.92;;;15.40;99.90;;;;;;5070527;28;20033;-67
2021/01/09 12:22:21;;;;;;;4.57;3.92;;;15.30;99.90;;;;;;5071375;28;20437;-67
2021/01/09 12:24:47;;;;;;;5.32;4.00;;;15.30;99.90;;;;;;5070700;28;20032;-66
2021/01/09 12:27:14;;;;;;;5.05;3.58;;;15.40;99.90;;;;;;5070858;28;20031;-66
2021/01/09 12:29:39;;;;;;;5.32;4.00;;;15.40;99.90;;;;;;5070656;28;20051;-66
2021/01/09 12:32:05;;;;;;;5.03;3.88;;;15.40;99.90;;;;;;5070805;28;20483;-66
2021/01/09 12:34:31;;;;;;;4.20;3.47;;;15.40;99.90;;;;;;5070765;28;20078;-67
2021/01/09 12:36:56;;;;;;;4.20;3.63;;;15.40;99.90;;;;;;5070739;28;20117;-66
2021/01/09 12:39:23;;;;;;;5.38;4.35;;;15.50;99.90;;;;;;5071098;28;20029;-68
2021/01/09 12:41:48;;;;;;;5.10;3.80;;;15.50;99.90;;;;;;5072558;28;20029;-70
2021/01/09 12:44:14;;;;;;;4.70;3.83;;;15.50;99.90;;;;;;5074713;28;20032;-66
2021/01/09 12:46:44;;;;;;;4.90;3.92;;;15.50;99.90;;;;;;5073742;28;20050;-70
2021/01/09 12:49:10;;;;;;;4.72;4.05;;;15.50;99.90;;;;;;5074527;28;20017;-66
2021/01/09 12:51:36;;;;;;;5.35;4.47;;;15.60;99.90;;;;;;5074164;28;20025;-66